This is the latest recevied weather packets stored in our database for station/object BMCB-19. If no packets are shown the sender has not sent any weather packets the latest 10 day(s).
| Time | Temp. | Humidity | Pressure | Rain* | Wind** | Luminosity | Snow |
|---|---|---|---|---|---|---|---|
| 1777404048 | 15° C | 48% | 1020.1 hPa | 0 mm | - | 0 W/m² | - |
| 1777401063 | 16.11° C | 47% | 1019.6 hPa | 0 mm | - | 29 W/m² | - |
| 1777399265 | 16.67° C | 47% | 1019.2 hPa | 0 mm | - | 57 W/m² | - |
| 1777396862 | 17.78° C | 46% | 1018.7 hPa | 0 mm | - | 86 W/m² | - |
| 1777396261 | 17.78° C | 46% | 1018.7 hPa | 0 mm | - | 86 W/m² | - |
| 1777394454 | 17.78° C | 46% | 1018.6 hPa | 0 mm | - | 396 W/m² | - |
| 1777381854 | 16.67° C | 51% | 1019.5 hPa | 0 mm | - | 530 W/m² | - |
| 1777375257 | 16.67° C | 54% | 1019.8 hPa | 0 mm | - | 104 W/m² | - |
| 1777360255 | 8.89° C | 68% | 1020.9 hPa | 0 mm | - | 449 W/m² | - |
| 1777356056 | 7.78° C | 69% | 1020.8 hPa | 0 mm | - | 249 W/m² | - |
| 1777354258 | 7.22° C | 70% | 1020.8 hPa | 0 mm | - | 139 W/m² | - |
| 1777353656 | 7.22° C | 71% | 1020.7 hPa | 0 mm | - | 147 W/m² | - |
| 1777352459 | 6.67° C | 70% | 1020.8 hPa | 0 mm | - | 53 W/m² | - |
| 1777345857 | 8.33° C | 65% | 1020.9 hPa | 0 mm | - | 0 W/m² | - |
| 1777341043 | 8.33° C | 65% | 1021.3 hPa | 0 mm | - | 0 W/m² | - |
| 1777339858 | 8.89° C | 64% | 1021.3 hPa | 0 mm | - | 0 W/m² | - |
| 1777333256 | 8.89° C | 62% | 1021.7 hPa | 0 mm | - | 0 W/m² | - |
| 1777330255 | 9.44° C | 59% | 1021.5 hPa | 0 mm | - | 0 W/m² | - |
| 1777327854 | 9.44° C | 58% | 1021.5 hPa | 0 mm | - | 0 W/m² | - |
| 1777314061 | 15° C | 42% | 1021.1 hPa | 0 mm | - | 69 W/m² | - |
| 1777311659 | 15.56° C | 39% | 1021.2 hPa | 0 mm | - | 159 W/m² | - |
| 1777309259 | 16.11° C | 40% | 1021.2 hPa | 0 mm | - | 216 W/m² | - |
| 1777306264 | 16.67° C | 37% | 1021.4 hPa | 0 mm | - | 412 W/m² | - |
| 1777303260 | 17.22° C | 38% | 1021.7 hPa | 0 mm | - | 653 W/m² | - |
| 1777298467 | 17.78° C | 39% | 1022.4 hPa | 0 mm | - | 894 W/m² | - |
* Rain latest hour (hover to see other rain measurements)
** Current wind speed in m/s (hover to see current wind gust speed)